sensor_id;sensor_type;location;lat;lon;timestamp;temperature;humidity
11944;DHT22;6031;50.220;10.122;2023-07-08T00:01:56;15.30;1.00
11944;DHT22;6031;50.220;10.122;2023-07-08T00:04:21;15.30;1.00
11944;DHT22;6031;50.220;10.122;2023-07-08T00:06:47;15.40;1.00
11944;DHT22;6031;50.220;10.122;2023-07-08T00:09:13;15.30;1.00
11944;DHT22;6031;50.220;10.122;2023-07-08T00:11:38;15.20;1.00
11944;DHT22;6031;50.220;10.122;2023-07-08T00:14:04;15.20;1.00
11944;DHT22;6031;50.220;10.122;2023-07-08T00:16:30;15.10;1.00
11944;DHT22;6031;50.220;10.122;2023-07-08T00:18:55;15.00;1.00
11944;DHT22;6031;50.220;10.122;2023-07-08T00:21:21;14.90;1.00
11944;DHT22;6031;50.220;10.122;2023-07-08T00:23:50;14.80;60.00
11944;DHT22;6031;50.220;10.122;2023-07-08T00:26:27;14.80;99.90
11944;DHT22;6031;50.220;10.122;2023-07-08T00:28:54;14.70;99.90
11944;DHT22;6031;50.220;10.122;2023-07-08T00:31:19;14.70;4.20
11944;DHT22;6031;50.220;10.122;2023-07-08T00:33:50;14.70;1.00
11944;DHT22;6031;50.220;10.122;2023-07-08T00:36:16;14.70;99.90
11944;DHT22;6031;50.220;10.122;2023-07-08T00:38:42;14.80;94.90
11944;DHT22;6031;50.220;10.122;2023-07-08T00:41:16;14.70;45.10
11944;DHT22;6031;50.220;10.122;2023-07-08T00:43:54;14.70;99.90
11944;DHT22;6031;50.220;10.122;2023-07-08T00:49:23;14.60;99.90
11944;DHT22;6031;50.220;10.122;2023-07-08T00:51:50;14.70;99.90
11944;DHT22;6031;50.220;10.122;2023-07-08T00:54:18;14.70;99.90
11944;DHT22;6031;50.220;10.122;2023-07-08T00:56:53;14.60;99.90
11944;DHT22;6031;50.220;10.122;2023-07-08T00:59:23;14.60;1.00
11944;DHT22;6031;50.220;10.122;2023-07-08T01:01:50;14.60;1.00
11944;DHT22;6031;50.220;10.122;2023-07-08T01:04:22;14.60;1.00
11944;DHT22;6031;50.220;10.122;2023-07-08T01:06:56;14.60;1.00
11944;DHT22;6031;50.220;10.122;2023-07-08T01:09:31;14.50;1.00
11944;DHT22;6031;50.220;10.122;2023-07-08T01:12:00;14.40;1.00
11944;DHT22;6031;50.220;10.122;2023-07-08T01:14:29;14.40;1.00
11944;DHT22;6031;50.220;10.122;2023-07-08T01:16:57;14.30;44.80
11944;DHT22;6031;50.220;10.122;2023-07-08T01:19:23;14.30;1.00
11944;DHT22;6031;50.220;10.122;2023-07-08T01:21:58;14.40;1.00
11944;DHT22;6031;50.220;10.122;2023-07-08T01:24:28;14.30;1.00
11944;DHT22;6031;50.220;10.122;2023-07-08T01:26:54;14.30;1.00
11944;DHT22;6031;50.220;10.122;2023-07-08T01:29:20;14.20;1.00
11944;DHT22;6031;50.220;10.122;2023-07-08T01:31:46;14.10;1.00
11944;DHT22;6031;50.220;10.122;2023-07-08T01:34:15;14.20;1.00
11944;DHT22;6031;50.220;10.122;2023-07-08T01:36:51;14.10;1.00
11944;DHT22;6031;50.220;10.122;2023-07-08T01:39:19;14.10;23.20
11944;DHT22;6031;50.220;10.122;2023-07-08T01:41:46;14.10;1.00
11944;DHT22;6031;50.220;10.122;2023-07-08T01:44:38;14.10;1.00
11944;DHT22;6031;50.220;10.122;2023-07-08T01:47:14;14.10;63.20
11944;DHT22;6031;50.220;10.122;2023-07-08T01:49:42;14.00;99.90
11944;DHT22;6031;50.220;10.122;2023-07-08T01:52:11;14.00;99.90
11944;DHT22;6031;50.220;10.122;2023-07-08T01:54:37;14.00;99.90
11944;DHT22;6031;50.220;10.122;2023-07-08T01:57:03;14.10;99.90
11944;DHT22;6031;50.220;10.122;2023-07-08T01:59:29;14.00;99.90
11944;DHT22;6031;50.220;10.122;2023-07-08T02:01:54;14.10;99.90
11944;DHT22;6031;50.220;10.122;2023-07-08T02:04:24;14.20;1.00
11944;DHT22;6031;50.220;10.122;2023-07-08T02:06:54;14.10;1.00
11944;DHT22;6031;50.220;10.122;2023-07-08T02:09:20;14.10;1.00
11944;DHT22;6031;50.220;10.122;2023-07-08T02:11:45;14.10;1.00
11944;DHT22;6031;50.220;10.122;2023-07-08T02:14:11;14.00;1.00
11944;DHT22;6031;50.220;10.122;2023-07-08T02:16:36;13.90;80.10
11944;DHT22;6031;50.220;10.122;2023-07-08T02:19:02;13.90;99.90
11944;DHT22;6031;50.220;10.122;2023-07-08T02:21:27;13.80;99.90
11944;DHT22;6031;50.220;10.122;2023-07-08T02:23:56;13.80;99.90
11944;DHT22;6031;50.220;10.122;2023-07-08T02:26:22;13.70;1.00
11944;DHT22;6031;50.220;10.122;2023-07-08T02:28:48;13.60;99.90
11944;DHT22;6031;50.220;10.122;2023-07-08T02:31:13;13.60;1.00
11944;DHT22;6031;50.220;10.122;2023-07-08T02:33:39;13.60;1.00
11944;DHT22;6031;50.220;10.122;2023-07-08T02:36:04;13.60;1.00
11944;DHT22;6031;50.220;10.122;2023-07-08T02:38:30;13.50;1.00
11944;DHT22;6031;50.220;10.122;2023-07-08T02:40:56;13.50;1.00
11944;DHT22;6031;50.220;10.122;2023-07-08T02:43:21;13.50;1.00
11944;DHT22;6031;50.220;10.122;2023-07-08T02:45:49;13.40;1.00
11944;DHT22;6031;50.220;10.122;2023-07-08T02:48:15;13.30;99.90
11944;DHT22;6031;50.220;10.122;2023-07-08T02:50:41;13.30;99.90
11944;DHT22;6031;50.220;10.122;2023-07-08T02:53:06;13.30;1.00
11944;DHT22;6031;50.220;10.122;2023-07-08T02:55:32;13.30;1.00
11944;DHT22;6031;50.220;10.122;2023-07-08T02:57:57;13.20;99.90
11944;DHT22;6031;50.220;10.122;2023-07-08T03:00:23;13.10;1.00
11944;DHT22;6031;50.220;10.122;2023-07-08T03:02:48;13.10;99.90
11944;DHT22;6031;50.220;10.122;2023-07-08T03:05:14;13.10;99.90
11944;DHT22;6031;50.220;10.122;2023-07-08T03:07:40;13.20;99.90
11944;DHT22;6031;50.220;10.122;2023-07-08T03:10:05;13.20;99.90
11944;DHT22;6031;50.220;10.122;2023-07-08T03:12:31;13.30;1.00
11944;DHT22;6031;50.220;10.122;2023-07-08T03:14:57;13.40;99.90
11944;DHT22;6031;50.220;10.122;2023-07-08T03:17:22;13.40;99.90
11944;DHT22;6031;50.220;10.122;2023-07-08T03:19:48;13.50;1.00
11944;DHT22;6031;50.220;10.122;2023-07-08T03:22:14;13.50;99.90
11944;DHT22;6031;50.220;10.122;2023-07-08T03:24:40;13.50;99.90
11944;DHT22;6031;50.220;10.122;2023-07-08T03:27:15;13.40;99.90
11944;DHT22;6031;50.220;10.122;2023-07-08T03:29:40;13.40;99.90
11944;DHT22;6031;50.220;10.122;2023-07-08T03:32:10;13.40;43.30
11944;DHT22;6031;50.220;10.122;2023-07-08T03:34:35;13.30;99.90
11944;DHT22;6031;50.220;10.122;2023-07-08T03:37:01;13.20;99.90
11944;DHT22;6031;50.220;10.122;2023-07-08T03:39:27;13.10;99.90
11944;DHT22;6031;50.220;10.122;2023-07-08T03:41:53;13.00;1.00
11944;DHT22;6031;50.220;10.122;2023-07-08T03:44:19;13.00;99.90
11944;DHT22;6031;50.220;10.122;2023-07-08T03:46:46;13.00;99.90
11944;DHT22;6031;50.220;10.122;2023-07-08T03:49:12;13.00;1.00
11944;DHT22;6031;50.220;10.122;2023-07-08T03:51:39;13.00;1.00
11944;DHT22;6031;50.220;10.122;2023-07-08T03:54:07;13.00;99.90
11944;DHT22;6031;50.220;10.122;2023-07-08T03:56:34;13.00;90.00
11944;DHT22;6031;50.220;10.122;2023-07-08T03:59:00;13.00;54.80
11944;DHT22;6031;50.220;10.122;2023-07-08T04:01:26;13.00;99.90
11944;DHT22;6031;50.220;10.122;2023-07-08T04:03:53;13.00;99.90
11944;DHT22;6031;50.220;10.122;2023-07-08T04:06:20;13.10;99.90
11944;DHT22;6031;50.220;10.122;2023-07-08T04:08:46;13.10;26.20
11944;DHT22;6031;50.220;10.122;2023-07-08T04:11:14;13.20;1.00
11944;DHT22;6031;50.220;10.122;2023-07-08T04:13:40;13.30;99.90
11944;DHT22;6031;50.220;10.122;2023-07-08T04:16:07;13.30;99.90
11944;DHT22;6031;50.220;10.122;2023-07-08T04:18:35;13.30;99.90
11944;DHT22;6031;50.220;10.122;2023-07-08T04:21:01;13.20;59.40
11944;DHT22;6031;50.220;10.122;2023-07-08T04:23:27;13.20;1.00
11944;DHT22;6031;50.220;10.122;2023-07-08T04:25:55;13.30;1.00
11944;DHT22;6031;50.220;10.122;2023-07-08T04:28:21;13.40;1.00
11944;DHT22;6031;50.220;10.122;2023-07-08T04:30:47;13.40;1.00
11944;DHT22;6031;50.220;10.122;2023-07-08T04:33:14;13.50;1.00
11944;DHT22;6031;50.220;10.122;2023-07-08T04:35:41;13.50;1.00
11944;DHT22;6031;50.220;10.122;2023-07-08T04:38:14;13.70;99.90
11944;DHT22;6031;50.220;10.122;2023-07-08T04:40:41;13.70;99.90
11944;DHT22;6031;50.220;10.122;2023-07-08T04:43:07;13.80;99.90
11944;DHT22;6031;50.220;10.122;2023-07-08T04:45:33;13.90;99.90
11944;DHT22;6031;50.220;10.122;2023-07-08T04:47:59;14.00;99.90
11944;DHT22;6031;50.220;10.122;2023-07-08T04:50:24;14.10;99.90
11944;DHT22;6031;50.220;10.122;2023-07-08T04:52:50;14.20;94.20
11944;DHT22;6031;50.220;10.122;2023-07-08T04:55:15;14.20;1.00
11944;DHT22;6031;50.220;10.122;2023-07-08T04:57:41;14.40;1.00
11944;DHT22;6031;50.220;10.122;2023-07-08T05:00:09;14.50;99.90
11944;DHT22;6031;50.220;10.122;2023-07-08T05:02:38;14.70;99.90
11944;DHT22;6031;50.220;10.122;2023-07-08T05:05:03;14.90;1.00
11944;DHT22;6031;50.220;10.122;2023-07-08T05:07:29;15.00;1.00
11944;DHT22;6031;50.220;10.122;2023-07-08T05:09:54;15.10;1.00
11944;DHT22;6031;50.220;10.122;2023-07-08T05:12:20;15.30;1.00
11944;DHT22;6031;50.220;10.122;2023-07-08T05:14:46;15.40;1.00
11944;DHT22;6031;50.220;10.122;2023-07-08T05:17:12;15.50;1.00
11944;DHT22;6031;50.220;10.122;2023-07-08T05:19:37;15.60;1.00
11944;DHT22;6031;50.220;10.122;2023-07-08T05:22:03;15.70;1.00
11944;DHT22;6031;50.220;10.122;2023-07-08T05:24:28;15.90;99.90
11944;DHT22;6031;50.220;10.122;2023-07-08T05:26:54;16.10;99.90
11944;DHT22;6031;50.220;10.122;2023-07-08T05:29:19;16.30;99.90
11944;DHT22;6031;50.220;10.122;2023-07-08T05:31:45;16.50;99.90
11944;DHT22;6031;50.220;10.122;2023-07-08T05:34:10;16.70;1.00
11944;DHT22;6031;50.220;10.122;2023-07-08T05:36:36;16.80;16.80
11944;DHT22;6031;50.220;10.122;2023-07-08T05:39:02;16.90;1.00
11944;DHT22;6031;50.220;10.122;2023-07-08T05:41:27;17.00;1.00
11944;DHT22;6031;50.220;10.122;2023-07-08T05:43:53;17.00;99.90
11944;DHT22;6031;50.220;10.122;2023-07-08T05:46:18;17.20;99.90
11944;DHT22;6031;50.220;10.122;2023-07-08T05:48:44;17.50;1.00
11944;DHT22;6031;50.220;10.122;2023-07-08T05:51:09;17.80;1.00
11944;DHT22;6031;50.220;10.122;2023-07-08T05:53:35;18.10;99.90
11944;DHT22;6031;50.220;10.122;2023-07-08T05:56:02;18.30;99.90
11944;DHT22;6031;50.220;10.122;2023-07-08T05:58:28;18.60;99.90
11944;DHT22;6031;50.220;10.122;2023-07-08T06:00:57;18.90;91.30
11944;DHT22;6031;50.220;10.122;2023-07-08T06:03:22;19.10;96.00
11944;DHT22;6031;50.220;10.122;2023-07-08T06:05:48;19.50;81.60
11944;DHT22;6031;50.220;10.122;2023-07-08T06:08:15;20.20;1.00
11944;DHT22;6031;50.220;10.122;2023-07-08T06:10:44;21.50;1.00
11944;DHT22;6031;50.220;10.122;2023-07-08T06:13:10;22.40;1.00
11944;DHT22;6031;50.220;10.122;2023-07-08T06:15:36;23.20;1.00
11944;DHT22;6031;50.220;10.122;2023-07-08T06:18:02;23.60;1.00
11944;DHT22;6031;50.220;10.122;2023-07-08T06:20:29;24.10;1.00
11944;DHT22;6031;50.220;10.122;2023-07-08T06:22:55;24.60;1.00
11944;DHT22;6031;50.220;10.122;2023-07-08T06:25:20;25.10;99.90
11944;DHT22;6031;50.220;10.122;2023-07-08T06:27:46;25.50;99.90
11944;DHT22;6031;50.220;10.122;2023-07-08T06:30:11;25.90;99.90
11944;DHT22;6031;50.220;10.122;2023-07-08T06:32:37;26.00;99.90
11944;DHT22;6031;50.220;10.122;2023-07-08T06:35:03;26.30;99.90
11944;DHT22;6031;50.220;10.122;2023-07-08T06:37:28;26.70;99.90
11944;DHT22;6031;50.220;10.122;2023-07-08T06:39:54;27.00;99.90
11944;DHT22;6031;50.220;10.122;2023-07-08T06:42:19;27.30;99.90
11944;DHT22;6031;50.220;10.122;2023-07-08T06:44:45;27.70;99.90
11944;DHT22;6031;50.220;10.122;2023-07-08T06:47:17;27.30;99.90
11944;DHT22;6031;50.220;10.122;2023-07-08T06:49:43;27.90;99.90
11944;DHT22;6031;50.220;10.122;2023-07-08T06:52:08;28.40;99.90
11944;DHT22;6031;50.220;10.122;2023-07-08T06:54:34;28.50;99.90
11944;DHT22;6031;50.220;10.122;2023-07-08T06:56:59;28.50;99.90
11944;DHT22;6031;50.220;10.122;2023-07-08T06:59:25;28.60;99.90
11944;DHT22;6031;50.220;10.122;2023-07-08T07:01:51;27.80;99.90
11944;DHT22;6031;50.220;10.122;2023-07-08T07:04:16;26.60;99.90
11944;DHT22;6031;50.220;10.122;2023-07-08T07:06:42;26.10;99.90
11944;DHT22;6031;50.220;10.122;2023-07-08T07:09:07;26.20;99.90
11944;DHT22;6031;50.220;10.122;2023-07-08T07:11:33;27.10;99.90
11944;DHT22;6031;50.220;10.122;2023-07-08T07:13:58;27.40;99.90
11944;DHT22;6031;50.220;10.122;2023-07-08T07:16:23;27.40;99.90
11944;DHT22;6031;50.220;10.122;2023-07-08T07:18:49;28.40;99.90
11944;DHT22;6031;50.220;10.122;2023-07-08T07:21:17;29.10;99.90
11944;DHT22;6031;50.220;10.122;2023-07-08T07:23:42;30.20;99.90
11944;DHT22;6031;50.220;10.122;2023-07-08T07:26:08;30.20;99.90
11944;DHT22;6031;50.220;10.122;2023-07-08T07:28:34;30.80;99.90
11944;DHT22;6031;50.220;10.122;2023-07-08T07:31:00;30.80;99.90
11944;DHT22;6031;50.220;10.122;2023-07-08T07:33:26;31.60;99.90
11944;DHT22;6031;50.220;10.122;2023-07-08T07:35:52;31.70;99.90
11944;DHT22;6031;50.220;10.122;2023-07-08T07:38:17;32.00;99.90
11944;DHT22;6031;50.220;10.122;2023-07-08T07:40:44;32.00;99.90
11944;DHT22;6031;50.220;10.122;2023-07-08T07:43:10;32.30;99.90
11944;DHT22;6031;50.220;10.122;2023-07-08T07:45:35;33.50;99.90
11944;DHT22;6031;50.220;10.122;2023-07-08T07:48:02;33.90;99.90
11944;DHT22;6031;50.220;10.122;2023-07-08T07:50:28;34.30;99.90
11944;DHT22;6031;50.220;10.122;2023-07-08T07:52:53;35.00;99.90
11944;DHT22;6031;50.220;10.122;2023-07-08T07:55:19;35.40;99.90
11944;DHT22;6031;50.220;10.122;2023-07-08T07:57:45;35.90;99.90
11944;DHT22;6031;50.220;10.122;2023-07-08T08:00:13;36.50;99.90
11944;DHT22;6031;50.220;10.122;2023-07-08T08:02:42;36.60;99.90
11944;DHT22;6031;50.220;10.122;2023-07-08T08:05:08;36.50;99.90
11944;DHT22;6031;50.220;10.122;2023-07-08T08:07:34;35.80;99.90
11944;DHT22;6031;50.220;10.122;2023-07-08T08:09:59;35.80;99.90
11944;DHT22;6031;50.220;10.122;2023-07-08T08:12:25;36.20;99.90
11944;DHT22;6031;50.220;10.122;2023-07-08T08:14:51;36.10;99.90
11944;DHT22;6031;50.220;10.122;2023-07-08T08:17:17;36.30;99.90
11944;DHT22;6031;50.220;10.122;2023-07-08T08:19:42;35.80;99.90
11944;DHT22;6031;50.220;10.122;2023-07-08T08:22:08;35.80;99.90
11944;DHT22;6031;50.220;10.122;2023-07-08T08:24:33;35.00;99.90
11944;DHT22;6031;50.220;10.122;2023-07-08T08:26:59;35.00;99.90
11944;DHT22;6031;50.220;10.122;2023-07-08T08:29:25;35.60;99.90
11944;DHT22;6031;50.220;10.122;2023-07-08T08:31:50;35.20;99.90
11944;DHT22;6031;50.220;10.122;2023-07-08T08:34:16;35.70;99.90
11944;DHT22;6031;50.220;10.122;2023-07-08T08:36:42;36.20;99.90
11944;DHT22;6031;50.220;10.122;2023-07-08T08:39:08;35.70;99.90
11944;DHT22;6031;50.220;10.122;2023-07-08T08:41:35;36.20;99.90
11944;DHT22;6031;50.220;10.122;2023-07-08T08:44:02;36.30;99.90
11944;DHT22;6031;50.220;10.122;2023-07-08T08:46:49;37.00;99.90
11944;DHT22;6031;50.220;10.122;2023-07-08T08:49:39;36.90;99.90
11944;DHT22;6031;50.220;10.122;2023-07-08T08:52:06;38.50;99.90
11944;DHT22;6031;50.220;10.122;2023-07-08T08:54:32;38.60;99.90
11944;DHT22;6031;50.220;10.122;2023-07-08T08:59:42;38.90;99.90
11944;DHT22;6031;50.220;10.122;2023-07-08T09:05:02;38.40;99.90
11944;DHT22;6031;50.220;10.122;2023-07-08T09:07:28;38.30;99.90
11944;DHT22;6031;50.220;10.122;2023-07-08T09:10:03;36.90;99.90
11944;DHT22;6031;50.220;10.122;2023-07-08T09:12:31;35.70;99.90
11944;DHT22;6031;50.220;10.122;2023-07-08T09:14:57;36.10;99.90
11944;DHT22;6031;50.220;10.122;2023-07-08T09:17:29;35.90;99.90
11944;DHT22;6031;50.220;10.122;2023-07-08T09:23:28;36.30;99.90
11944;DHT22;6031;50.220;10.122;2023-07-08T09:26:02;37.40;99.90
11944;DHT22;6031;50.220;10.122;2023-07-08T09:28:42;38.20;99.90
11944;DHT22;6031;50.220;10.122;2023-07-08T09:31:18;38.80;99.90
11944;DHT22;6031;50.220;10.122;2023-07-08T09:33:45;38.10;99.90
11944;DHT22;6031;50.220;10.122;2023-07-08T09:36:23;38.20;99.90
11944;DHT22;6031;50.220;10.122;2023-07-08T09:38:49;38.10;99.90
11944;DHT22;6031;50.220;10.122;2023-07-08T09:41:32;39.00;99.90
11944;DHT22;6031;50.220;10.122;2023-07-08T09:44:04;38.00;99.90
11944;DHT22;6031;50.220;10.122;2023-07-08T09:46:36;39.00;99.90
11944;DHT22;6031;50.220;10.122;2023-07-08T09:49:24;40.30;99.90
11944;DHT22;6031;50.220;10.122;2023-07-08T09:51:50;41.00;99.90
11944;DHT22;6031;50.220;10.122;2023-07-08T09:54:21;41.80;99.90
11944;DHT22;6031;50.220;10.122;2023-07-08T09:57:06;41.60;99.90
11944;DHT22;6031;50.220;10.122;2023-07-08T09:59:46;40.20;99.90
11944;DHT22;6031;50.220;10.122;2023-07-08T10:02:40;39.50;99.90
11944;DHT22;6031;50.220;10.122;2023-07-08T10:05:22;40.60;99.90
11944;DHT22;6031;50.220;10.122;2023-07-08T10:07:49;40.60;99.90
11944;DHT22;6031;50.220;10.122;2023-07-08T10:10:19;40.80;99.90
11944;DHT22;6031;50.220;10.122;2023-07-08T10:13:00;40.90;99.90
11944;DHT22;6031;50.220;10.122;2023-07-08T10:15:37;40.60;99.90
11944;DHT22;6031;50.220;10.122;2023-07-08T10:18:03;39.70;99.90
11944;DHT22;6031;50.220;10.122;2023-07-08T10:20:38;39.30;99.90
11944;DHT22;6031;50.220;10.122;2023-07-08T10:26:29;40.30;99.90
11944;DHT22;6031;50.220;10.122;2023-07-08T10:29:12;39.90;99.90
11944;DHT22;6031;50.220;10.122;2023-07-08T10:34:25;40.20;99.90
11944;DHT22;6031;50.220;10.122;2023-07-08T10:37:04;40.40;99.90
11944;DHT22;6031;50.220;10.122;2023-07-08T10:43:17;40.10;99.90
11944;DHT22;6031;50.220;10.122;2023-07-08T10:48:43;39.90;99.90
11944;DHT22;6031;50.220;10.122;2023-07-08T10:54:42;40.80;99.90
11944;DHT22;6031;50.220;10.122;2023-07-08T10:59:56;41.10;99.90
11944;DHT22;6031;50.220;10.122;2023-07-08T11:02:49;41.20;99.90
11944;DHT22;6031;50.220;10.122;2023-07-08T11:05:45;41.40;99.90
11944;DHT22;6031;50.220;10.122;2023-07-08T11:08:24;40.30;99.90
11944;DHT22;6031;50.220;10.122;2023-07-08T11:10:56;38.50;99.90
11944;DHT22;6031;50.220;10.122;2023-07-08T11:13:25;37.10;99.90
11944;DHT22;6031;50.220;10.122;2023-07-08T11:16:00;36.60;99.90
11944;DHT22;6031;50.220;10.122;2023-07-08T11:18:51;35.80;99.90
11944;DHT22;6031;50.220;10.122;2023-07-08T11:21:22;36.00;99.90
11944;DHT22;6031;50.220;10.122;2023-07-08T11:24:19;36.60;99.90
11944;DHT22;6031;50.220;10.122;2023-07-08T11:26:50;38.60;99.90
11944;DHT22;6031;50.220;10.122;2023-07-08T11:29:37;40.50;99.90
11944;DHT22;6031;50.220;10.122;2023-07-08T11:32:05;40.40;99.90
11944;DHT22;6031;50.220;10.122;2023-07-08T11:34:34;40.50;99.90
11944;DHT22;6031;50.220;10.122;2023-07-08T11:37:02;40.60;99.90
11944;DHT22;6031;50.220;10.122;2023-07-08T11:39:44;40.70;99.90
11944;DHT22;6031;50.220;10.122;2023-07-08T11:47:41;39.60;99.90
11944;DHT22;6031;50.220;10.122;2023-07-08T11:50:46;40.30;99.90
11944;DHT22;6031;50.220;10.122;2023-07-08T11:53:35;39.80;99.90
11944;DHT22;6031;50.220;10.122;2023-07-08T12:03:49;39.50;99.90
11944;DHT22;6031;50.220;10.122;2023-07-08T12:08:57;40.60;99.90
11944;DHT22;6031;50.220;10.122;2023-07-08T12:11:27;40.00;99.90
11944;DHT22;6031;50.220;10.122;2023-07-08T12:13:55;39.60;99.90
11944;DHT22;6031;50.220;10.122;2023-07-08T12:16:22;40.10;99.90
11944;DHT22;6031;50.220;10.122;2023-07-08T12:18:48;40.60;99.90
11944;DHT22;6031;50.220;10.122;2023-07-08T12:21:15;40.30;99.90
11944;DHT22;6031;50.220;10.122;2023-07-08T12:23:47;39.10;99.90
11944;DHT22;6031;50.220;10.122;2023-07-08T12:26:14;39.60;99.90
11944;DHT22;6031;50.220;10.122;2023-07-08T12:28:40;39.00;99.90
11944;DHT22;6031;50.220;10.122;2023-07-08T12:31:32;38.60;99.90
11944;DHT22;6031;50.220;10.122;2023-07-08T12:33:59;38.90;99.90
11944;DHT22;6031;50.220;10.122;2023-07-08T12:36:27;39.10;99.90
11944;DHT22;6031;50.220;10.122;2023-07-08T12:38:56;39.50;99.90
11944;DHT22;6031;50.220;10.122;2023-07-08T12:41:29;38.90;99.90
11944;DHT22;6031;50.220;10.122;2023-07-08T12:43:56;39.10;99.90
11944;DHT22;6031;50.220;10.122;2023-07-08T12:46:23;39.80;99.90
11944;DHT22;6031;50.220;10.122;2023-07-08T12:48:49;40.60;99.90
11944;DHT22;6031;50.220;10.122;2023-07-08T12:51:24;41.30;99.90
11944;DHT22;6031;50.220;10.122;2023-07-08T12:53:51;41.80;99.90
11944;DHT22;6031;50.220;10.122;2023-07-08T12:56:18;41.20;99.90
11944;DHT22;6031;50.220;10.122;2023-07-08T12:58:48;39.70;99.90
11944;DHT22;6031;50.220;10.122;2023-07-08T13:01:20;40.50;99.90
11944;DHT22;6031;50.220;10.122;2023-07-08T13:03:48;39.70;99.90
11944;DHT22;6031;50.220;10.122;2023-07-08T13:06:17;40.20;99.90
11944;DHT22;6031;50.220;10.122;2023-07-08T13:08:44;39.20;99.90
11944;DHT22;6031;50.220;10.122;2023-07-08T13:11:15;39.10;99.90
11944;DHT22;6031;50.220;10.122;2023-07-08T13:13:50;39.40;99.90
11944;DHT22;6031;50.220;10.122;2023-07-08T13:16:16;39.20;99.90
11944;DHT22;6031;50.220;10.122;2023-07-08T13:18:42;38.20;99.90
11944;DHT22;6031;50.220;10.122;2023-07-08T13:21:14;37.80;99.90
11944;DHT22;6031;50.220;10.122;2023-07-08T13:23:41;37.80;99.90
11944;DHT22;6031;50.220;10.122;2023-07-08T13:26:18;37.50;99.90
11944;DHT22;6031;50.220;10.122;2023-07-08T13:28:44;37.50;99.90
11944;DHT22;6031;50.220;10.122;2023-07-08T13:31:17;37.40;99.90
11944;DHT22;6031;50.220;10.122;2023-07-08T13:33:48;37.60;99.90
11944;DHT22;6031;50.220;10.122;2023-07-08T13:36:17;37.40;99.90
11944;DHT22;6031;50.220;10.122;2023-07-08T13:38:44;37.70;99.90
11944;DHT22;6031;50.220;10.122;2023-07-08T13:41:10;37.10;99.90
11944;DHT22;6031;50.220;10.122;2023-07-08T13:43:39;37.20;99.90
11944;DHT22;6031;50.220;10.122;2023-07-08T13:46:24;37.60;99.90
11944;DHT22;6031;50.220;10.122;2023-07-08T13:48:52;37.40;99.90
11944;DHT22;6031;50.220;10.122;2023-07-08T13:51:22;37.40;99.90
11944;DHT22;6031;50.220;10.122;2023-07-08T13:53:53;37.60;99.90
11944;DHT22;6031;50.220;10.122;2023-07-08T13:56:33;37.80;99.90
11944;DHT22;6031;50.220;10.122;2023-07-08T13:59:04;38.20;99.90
11944;DHT22;6031;50.220;10.122;2023-07-08T14:01:32;38.30;99.90
11944;DHT22;6031;50.220;10.122;2023-07-08T14:03:58;38.50;99.90
11944;DHT22;6031;50.220;10.122;2023-07-08T14:06:30;38.40;99.90
11944;DHT22;6031;50.220;10.122;2023-07-08T14:09:06;38.90;99.90
11944;DHT22;6031;50.220;10.122;2023-07-08T14:11:34;38.80;99.90
11944;DHT22;6031;50.220;10.122;2023-07-08T14:14:00;38.60;99.90
11944;DHT22;6031;50.220;10.122;2023-07-08T14:16:28;38.60;99.90
11944;DHT22;6031;50.220;10.122;2023-07-08T14:18:58;38.20;99.90
11944;DHT22;6031;50.220;10.122;2023-07-08T14:21:25;38.00;99.90
11944;DHT22;6031;50.220;10.122;2023-07-08T14:23:50;37.70;99.90
11944;DHT22;6031;50.220;10.122;2023-07-08T14:26:16;37.50;99.90
11944;DHT22;6031;50.220;10.122;2023-07-08T14:28:42;38.00;99.90
11944;DHT22;6031;50.220;10.122;2023-07-08T14:31:09;38.10;99.90
11944;DHT22;6031;50.220;10.122;2023-07-08T14:33:35;37.90;99.90
11944;DHT22;6031;50.220;10.122;2023-07-08T14:36:01;37.90;99.90
11944;DHT22;6031;50.220;10.122;2023-07-08T14:38:26;37.50;99.90
11944;DHT22;6031;50.220;10.122;2023-07-08T14:40:52;38.00;99.90
11944;DHT22;6031;50.220;10.122;2023-07-08T14:43:27;38.00;99.90
11944;DHT22;6031;50.220;10.122;2023-07-08T14:45:56;38.00;99.90
11944;DHT22;6031;50.220;10.122;2023-07-08T14:48:24;38.00;99.90
11944;DHT22;6031;50.220;10.122;2023-07-08T14:50:50;37.90;99.90
11944;DHT22;6031;50.220;10.122;2023-07-08T14:53:17;37.80;99.90
11944;DHT22;6031;50.220;10.122;2023-07-08T14:55:44;36.80;99.90
11944;DHT22;6031;50.220;10.122;2023-07-08T14:58:23;36.70;99.90
11944;DHT22;6031;50.220;10.122;2023-07-08T15:00:51;37.50;99.90
11944;DHT22;6031;50.220;10.122;2023-07-08T15:03:17;38.60;99.90
11944;DHT22;6031;50.220;10.122;2023-07-08T15:05:42;39.00;99.90
11944;DHT22;6031;50.220;10.122;2023-07-08T15:08:08;39.30;99.90
11944;DHT22;6031;50.220;10.122;2023-07-08T15:10:34;38.70;99.90
11944;DHT22;6031;50.220;10.122;2023-07-08T15:13:01;38.30;99.90
11944;DHT22;6031;50.220;10.122;2023-07-08T15:15:31;37.80;99.90
11944;DHT22;6031;50.220;10.122;2023-07-08T15:17:57;37.20;99.90
11944;DHT22;6031;50.220;10.122;2023-07-08T15:20:24;36.60;99.90
11944;DHT22;6031;50.220;10.122;2023-07-08T15:22:50;36.20;99.90
11944;DHT22;6031;50.220;10.122;2023-07-08T15:25:16;36.10;99.90
11944;DHT22;6031;50.220;10.122;2023-07-08T15:27:45;36.10;99.90
11944;DHT22;6031;50.220;10.122;2023-07-08T15:30:20;36.10;99.90
11944;DHT22;6031;50.220;10.122;2023-07-08T15:32:47;36.10;99.90
11944;DHT22;6031;50.220;10.122;2023-07-08T15:35:15;35.80;99.90
11944;DHT22;6031;50.220;10.122;2023-07-08T15:37:41;35.50;99.90
11944;DHT22;6031;50.220;10.122;2023-07-08T15:40:07;35.40;99.90
11944;DHT22;6031;50.220;10.122;2023-07-08T15:42:34;35.60;99.90
11944;DHT22;6031;50.220;10.122;2023-07-08T15:45:01;35.60;99.90
11944;DHT22;6031;50.220;10.122;2023-07-08T15:47:27;35.60;99.90
11944;DHT22;6031;50.220;10.122;2023-07-08T15:49:52;35.90;99.90
11944;DHT22;6031;50.220;10.122;2023-07-08T15:52:18;36.30;99.90
11944;DHT22;6031;50.220;10.122;2023-07-08T15:54:43;36.10;99.90
11944;DHT22;6031;50.220;10.122;2023-07-08T15:57:11;36.20;99.90
11944;DHT22;6031;50.220;10.122;2023-07-08T15:59:37;36.20;99.90
11944;DHT22;6031;50.220;10.122;2023-07-08T16:02:19;35.90;99.90
11944;DHT22;6031;50.220;10.122;2023-07-08T16:04:47;35.50;99.90
11944;DHT22;6031;50.220;10.122;2023-07-08T16:07:13;35.10;99.90
11944;DHT22;6031;50.220;10.122;2023-07-08T16:09:38;34.60;99.90
11944;DHT22;6031;50.220;10.122;2023-07-08T16:12:04;34.60;99.90
11944;DHT22;6031;50.220;10.122;2023-07-08T16:14:30;34.10;99.90
11944;DHT22;6031;50.220;10.122;2023-07-08T16:16:56;34.00;99.90
11944;DHT22;6031;50.220;10.122;2023-07-08T16:19:21;34.10;99.90
11944;DHT22;6031;50.220;10.122;2023-07-08T16:21:47;33.90;99.90
11944;DHT22;6031;50.220;10.122;2023-07-08T16:24:12;34.00;99.90
11944;DHT22;6031;50.220;10.122;2023-07-08T16:26:38;33.90;99.90
11944;DHT22;6031;50.220;10.122;2023-07-08T16:29:04;33.70;99.90
11944;DHT22;6031;50.220;10.122;2023-07-08T16:31:31;33.70;99.90